Accueil
METAR-TAF:

METAR-TAF

Aéroports :

Turin, Italie

latitude: 45-05-20N, longitude: 007-36-20E, altitude: 288 m

Observation

Le bulletin a été fait il y a 1 heure et 13 minutes, à 07:50 UTC
Vent 2 kt de direction variable
Température 13°C
Humidité 82%
Pression 1007 hPa
Visibilité: 3000 m
Quelques nuages à une hauteur de 1000 ft
Nuages fragmentés à une hauteur de 2500 ft
brume

METAR: LIMA 270750Z VRB02KT 3000 BR FEW010 BKN025 13/10 Q1007

Heure: 11:03 (09:03 UTC)


TAF: absent

Observations et prévisions météorologiques de plus de 4000 aéroports (messages METAR et TAF).

Les stations disponibles sont représentées par des disques jaunes et rouges sur la carte.

Passer la souris dessus pour voir le nom de la station.

Cliquer dessus pour voir les observations et prévisions météorologiques.

Pour changer de carte: cliquez sur les boutons verts avec une croix noire pour zoomer, sur le bouton vert avec un tiret pour effectuer un zoom arrière, ou sur les flèches vertes pour les cartes adjacentes.


METAR-TAF: